Time,TemperatureF,DewpointF,PressureIn,WindDirection,WindDirectionDegrees,WindSpeedMPH,WindSpeedGustMPH,Humidity,HourlyPrecipIn,Conditions,Clouds,dailyrainin,SoftwareType,DateUTC
2013-01-09 07:03:00,34.9,32.5,30.29,SW,223,5.0,6.0,91,0.00,,,0.00,Wunderground v.1.15,2013-01-09 13:03:00,
2013-01-09 07:06:00,34.9,32.5,30.29,SW,229,5.0,6.0,91,0.00,,,0.00,Wunderground v.1.15,2013-01-09 13:06:00,
2013-01-09 07:09:00,34.9,32.5,30.29,SW,233,5.0,6.0,91,0.00,,,0.00,Wunderground v.1.15,2013-01-09 13:09:00,
2013-01-09 07:13:00,34.9,32.5,30.30,SW,226,5.0,6.0,91,0.00,,,0.00,Wunderground v.1.15,2013-01-09 13:13:00,
2013-01-09 07:18:00,34.8,32.4,30.30,SW,225,5.0,6.0,91,0.00,,,0.00,Wunderground v.1.15,2013-01-09 13:18:00,
2013-01-09 07:24:00,34.8,32.4,30.31,SW,233,5.0,6.0,91,0.00,,,0.00,Wunderground v.1.15,2013-01-09 13:24:00,
2013-01-09 07:30:00,34.6,32.2,30.31,SW,227,5.0,6.0,91,0.00,,,0.00,Wunderground v.1.15,2013-01-09 13:30:00,
2013-01-09 07:36:00,34.6,32.5,30.31,SW,229,5.0,7.0,92,0.00,,,0.00,Wunderground v.1.15,2013-01-09 13:36:00,
2013-01-09 07:42:00,34.8,32.7,30.31,SW,222,6.0,6.0,92,0.00,,,0.00,Wunderground v.1.15,2013-01-09 13:42:00,
2013-01-09 07:48:00,34.8,32.7,30.31,SW,219,5.0,6.0,92,0.00,,,0.00,Wunderground v.1.15,2013-01-09 13:48:00,
2013-01-09 07:54:00,35.0,32.9,30.31,SW,215,6.0,6.0,92,0.00,,,0.00,Wunderground v.1.15,2013-01-09 13:54:00,
2013-01-09 07:59:00,35.2,33.1,30.32,SW,221,6.0,6.0,92,0.00,,,0.00,Wunderground v.1.15,2013-01-09 13:59:00,
2013-01-09 08:05:00,35.4,33.0,30.31,SW,223,6.0,8.0,91,0.00,,,0.00,Wunderground v.1.15,2013-01-09 14:05:00,
2013-01-09 08:11:00,35.5,33.1,30.32,SW,232,6.0,7.0,91,0.00,,,0.00,Wunderground v.1.15,2013-01-09 14:11:00,
2013-01-09 08:17:00,35.7,33.3,30.32,SW,221,6.0,7.0,91,0.00,,,0.00,Wunderground v.1.15,2013-01-09 14:17:00,
2013-01-09 08:22:00,35.8,33.4,30.33,SSW,213,6.0,7.0,91,0.00,,,0.00,Wunderground v.1.15,2013-01-09 14:22:00,
2013-01-09 08:28:00,36.1,33.7,30.33,SW,227,7.0,10.0,91,0.00,,,0.00,Wunderground v.1.15,2013-01-09 14:28:00,
2013-01-09 08:34:00,36.4,34.0,30.33,SW,223,8.0,10.0,91,0.00,,,0.00,Wunderground v.1.15,2013-01-09 14:34:00,
2013-01-09 08:40:00,36.6,34.2,30.33,SW,228,8.0,9.0,91,0.00,,,0.00,Wunderground v.1.15,2013-01-09 14:40:00,
2013-01-09 08:46:00,36.9,34.2,30.34,SW,219,8.0,10.0,90,0.00,,,0.00,Wunderground v.1.15,2013-01-09 14:46:00,
2013-01-09 08:52:00,37.1,34.4,30.33,SW,225,8.0,8.0,90,0.00,,,0.00,Wunderground v.1.15,2013-01-09 14:52:00,
2013-01-09 08:58:00,37.3,34.6,30.33,SW,232,8.0,8.0,90,0.00,,,0.00,Wunderground v.1.15,2013-01-09 14:58:00,
2013-01-09 09:04:00,37.6,34.9,30.34,WSW,249,8.0,10.0,90,0.00,,,0.00,Wunderground v.1.15,2013-01-09 15:04:00,
2013-01-09 09:09:00,37.9,34.9,30.34,WSW,237,9.0,10.0,89,0.00,,,0.00,Wunderground v.1.15,2013-01-09 15:09:00,
2013-01-09 09:15:00,38.1,35.1,30.34,SW,230,9.0,11.0,89,0.00,,,0.00,Wunderground v.1.15,2013-01-09 15:15:00,
2013-01-09 09:21:00,38.4,35.4,30.34,WSW,239,9.0,11.0,89,0.00,,,0.00,Wunderground v.1.15,2013-01-09 15:21:00,
2013-01-09 09:27:00,38.5,35.5,30.34,WSW,238,10.0,11.0,89,0.00,,,0.00,Wunderground v.1.15,2013-01-09 15:27:00,
2013-01-09 09:33:00,38.8,35.6,30.35,WSW,238,10.0,13.0,88,0.00,,,0.00,Wunderground v.1.15,2013-01-09 15:33:00,
2013-01-09 09:39:00,39.0,35.7,30.35,SW,233,10.0,13.0,88,0.00,,,0.00,Wunderground v.1.15,2013-01-09 15:39:00,
2013-01-09 09:45:00,39.2,35.7,30.35,WSW,251,11.0,13.0,87,0.00,,,0.00,Wunderground v.1.15,2013-01-09 15:45:00,
2013-01-09 09:50:00,39.5,36.2,30.35,WSW,246,11.0,11.0,88,0.00,,,0.00,Wunderground v.1.15,2013-01-09 15:50:00,
2013-01-09 09:56:00,39.8,36.2,30.35,WSW,238,10.0,12.0,87,0.00,,,0.00,Wunderground v.1.15,2013-01-09 15:56:00,
2013-01-09 10:01:00,40.1,36.8,30.35,WSW,238,10.0,11.0,88,0.00,,,0.00,Wunderground v.1.15,2013-01-09 16:01:00,
2013-01-09 10:07:00,40.3,36.4,30.35,WSW,242,11.0,12.0,86,0.00,,,0.00,Wunderground v.1.15,2013-01-09 16:07:00,
2013-01-09 10:12:00,40.6,37.0,30.36,WSW,243,10.0,11.0,87,0.00,,,0.00,Wunderground v.1.15,2013-01-09 16:12:00,
2013-01-09 10:18:00,41.0,37.1,30.36,WSW,240,10.0,13.0,86,0.00,,,0.00,Wunderground v.1.15,2013-01-09 16:18:00,
2013-01-09 10:24:00,41.4,36.9,30.36,SW,227,11.0,13.0,84,0.00,,,0.00,Wunderground v.1.15,2013-01-09 16:24:00,
2013-01-09 10:30:00,41.8,37.6,30.36,WSW,244,11.0,12.0,85,0.00,,,0.00,Wunderground v.1.15,2013-01-09 16:30:00,
2013-01-09 10:36:00,42.2,37.7,30.35,WSW,246,10.0,12.0,84,0.00,,,0.00,Wunderground v.1.15,2013-01-09 16:36:00,
2013-01-09 10:42:00,42.3,37.8,30.35,WSW,239,10.0,10.0,84,0.00,,,0.00,Wunderground v.1.15,2013-01-09 16:42:00,
2013-01-09 10:48:00,42.8,38.3,30.35,WSW,246,9.0,10.0,84,0.00,,,0.00,Wunderground v.1.15,2013-01-09 16:48:00,
2013-01-09 10:53:00,43.1,38.0,30.35,West,259,9.0,15.0,82,0.00,,,0.00,Wunderground v.1.15,2013-01-09 16:53:00,
2013-01-09 10:59:00,43.3,38.5,30.35,WSW,248,10.0,15.0,83,0.00,,,0.00,Wunderground v.1.15,2013-01-09 16:59:00,
2013-01-09 11:05:00,43.7,38.6,30.35,WSW,252,10.0,12.0,82,0.00,,,0.00,Wunderground v.1.15,2013-01-09 17:05:00,
2013-01-09 11:11:00,44.0,38.9,30.35,WSW,257,11.0,11.0,82,0.00,,,0.00,Wunderground v.1.15,2013-01-09 17:11:00,
2013-01-09 11:17:00,44.0,37.9,30.36,West,260,12.0,14.0,79,0.00,,,0.00,Wunderground v.1.15,2013-01-09 17:17:00,
2013-01-09 11:23:00,44.3,38.5,30.36,WSW,254,11.0,12.0,80,0.00,,,0.00,Wunderground v.1.15,2013-01-09 17:23:00,
2013-01-09 11:29:00,44.8,38.7,30.35,WSW,257,10.0,13.0,79,0.00,,,0.00,Wunderground v.1.15,2013-01-09 17:29:00,
2013-01-09 11:34:00,44.7,38.3,30.35,WSW,248,10.0,12.0,78,0.00,,,0.00,Wunderground v.1.15,2013-01-09 17:34:00,
2013-01-09 11:40:00,44.6,38.8,30.35,WSW,253,11.0,11.0,80,0.00,,,0.00,Wunderground v.1.15,2013-01-09 17:40:00,
2013-01-09 11:46:00,45.0,39.2,30.35,West,263,11.0,13.0,80,0.00,,,0.00,Wunderground v.1.15,2013-01-09 17:46:00,
2013-01-09 11:52:00,45.6,39.8,30.35,West,261,11.0,12.0,80,0.00,,,0.00,Wunderground v.1.15,2013-01-09 17:52:00,
2013-01-09 11:58:00,45.7,39.6,30.35,WSW,251,12.0,19.0,79,0.00,,,0.00,Wunderground v.1.15,2013-01-09 17:58:00,
2013-01-09 12:04:00,45.9,39.4,30.34,West,263,12.0,15.0,78,0.00,,,0.00,Wunderground v.1.15,2013-01-09 18:04:00,
2013-01-09 12:10:00,46.1,39.6,30.34,West,265,12.0,12.0,78,0.00,,,0.00,Wunderground v.1.15,2013-01-09 18:10:00,
2013-01-09 12:15:00,46.2,39.4,30.34,WSW,257,12.0,16.0,77,0.00,,,0.00,Wunderground v.1.15,2013-01-09 18:15:00,
2013-01-09 12:21:00,46.1,39.6,30.34,West,261,12.0,13.0,78,0.00,,,0.00,Wunderground v.1.15,2013-01-09 18:21:00,
2013-01-09 12:27:00,46.3,39.8,30.35,West,267,12.0,16.0,78,0.00,,,0.00,Wunderground v.1.15,2013-01-09 18:27:00,
2013-01-09 12:33:00,46.5,39.7,30.34,West,279,12.0,15.0,77,0.00,,,0.00,Wunderground v.1.15,2013-01-09 18:33:00,
2013-01-09 12:38:00,46.8,40.0,30.35,WNW,292,13.0,17.0,77,0.00,,,0.00,Wunderground v.1.15,2013-01-09 18:38:00,
2013-01-09 12:42:00,46.8,39.3,30.35,West,272,14.0,19.0,75,0.00,,,0.00,Wunderground v.1.15,2013-01-09 18:42:00,
2013-01-09 12:43:00,46.9,40.1,30.34,West,277,13.0,19.0,77,0.00,,,0.00,Wunderground v.1.15,2013-01-09 18:43:00,
2013-01-09 12:44:00,46.9,40.4,30.35,West,275,13.0,19.0,78,0.00,,,0.00,Wunderground v.1.15,2013-01-09 18:44:00,
2013-01-09 12:45:00,47.0,40.5,30.34,West,280,13.0,19.0,78,0.00,,,0.00,Wunderground v.1.15,2013-01-09 18:45:00,
2013-01-09 12:48:00,47.1,40.3,30.35,West,269,12.0,19.0,77,0.00,,,0.00,Wunderground v.1.15,2013-01-09 18:48:00,
2013-01-09 12:49:00,47.2,40.0,30.34,WNW,284,12.0,19.0,76,0.00,,,0.00,Wunderground v.1.15,2013-01-09 18:49:00,
2013-01-09 12:50:00,47.2,40.4,30.35,WNW,282,12.0,13.0,77,0.00,,,0.00,Wunderground v.1.15,2013-01-09 18:50:00,
2013-01-09 12:51:00,47.2,40.4,30.35,WNW,286,12.0,15.0,77,0.00,,,0.00,Wunderground v.1.15,2013-01-09 18:51:00,
2013-01-09 12:57:00,47.4,39.5,30.35,WNW,290,13.0,18.0,74,0.00,,,0.00,Wunderground v.1.15,2013-01-09 18:57:00,
2013-01-09 13:03:00,47.2,39.3,30.35,WNW,285,13.0,15.0,74,0.00,,,0.00,Wunderground v.1.15,2013-01-09 19:03:00,
2013-01-09 13:09:00,47.4,39.5,30.35,WNW,285,13.0,15.0,74,0.00,,,0.00,Wunderground v.1.15,2013-01-09 19:09:00,
2013-01-09 13:15:00,47.6,39.7,30.35,WNW,291,11.0,13.0,74,0.00,,,0.00,Wunderground v.1.15,2013-01-09 19:15:00,
2013-01-09 13:21:00,48.0,39.4,30.35,NW,307,10.0,14.0,72,0.00,,,0.00,Wunderground v.1.15,2013-01-09 19:21:00,
2013-01-09 13:27:00,48.2,39.2,30.35,WNW,300,12.0,16.0,71,0.00,,,0.00,Wunderground v.1.15,2013-01-09 19:27:00,
2013-01-09 13:32:00,48.4,40.1,30.35,WNW,295,12.0,13.0,73,0.00,,,0.00,Wunderground v.1.15,2013-01-09 19:32:00,
2013-01-09 13:37:00,48.6,39.3,30.36,WNW,286,12.0,15.0,70,0.00,,,0.00,Wunderground v.1.15,2013-01-09 19:37:00,
2013-01-09 13:43:00,48.9,38.8,30.36,WNW,297,13.0,15.0,68,0.00,,,0.00,Wunderground v.1.15,2013-01-09 19:43:00,
2013-01-09 13:49:00,49.1,38.2,30.36,WNW,282,14.0,16.0,66,0.00,,,0.00,Wunderground v.1.15,2013-01-09 19:49:00,
2013-01-09 13:55:00,49.2,38.7,30.37,WNW,298,14.0,19.0,67,0.00,,,0.00,Wunderground v.1.15,2013-01-09 19:55:00,
2013-01-09 14:00:00,49.4,38.1,30.37,WNW,294,13.0,13.0,65,0.00,,,0.00,Wunderground v.1.15,2013-01-09 20:00:00,
2013-01-09 14:06:00,49.5,38.2,30.37,NW,306,13.0,14.0,65,0.00,,,0.00,Wunderground v.1.15,2013-01-09 20:06:00,
2013-01-09 14:11:00,49.7,38.0,30.37,WNW,302,12.0,14.0,64,0.00,,,0.00,Wunderground v.1.15,2013-01-09 20:11:00,
2013-01-09 14:17:00,50.0,39.1,30.37,WNW,286,12.0,14.0,66,0.00,,,0.00,Wunderground v.1.15,2013-01-09 20:17:00,
2013-01-09 14:23:00,50.2,37.7,30.38,NW,313,10.0,12.0,62,0.00,,,0.00,Wunderground v.1.15,2013-01-09 20:23:00,
2013-01-09 14:29:00,50.5,34.5,30.38,NW,321,12.0,14.0,54,0.00,,,0.00,Wunderground v.1.15,2013-01-09 20:29:00,
2013-01-09 14:34:00,50.4,33.9,30.38,WNW,301,14.0,14.0,53,0.00,,,0.00,Wunderground v.1.15,2013-01-09 20:34:00,
2013-01-09 14:40:00,50.4,34.4,30.39,WNW,299,12.0,12.0,54,0.00,,,0.00,Wunderground v.1.15,2013-01-09 20:40:00,
2013-01-09 14:46:00,50.4,33.4,30.39,NW,322,11.0,14.0,52,0.00,,,0.00,Wunderground v.1.15,2013-01-09 20:46:00,
2013-01-09 14:52:00,50.2,34.2,30.40,NW,307,10.0,20.0,54,0.00,,,0.00,Wunderground v.1.15,2013-01-09 20:52:00,
2013-01-09 14:58:00,50.1,34.1,30.40,WNW,300,9.0,20.0,54,0.00,,,0.00,Wunderground v.1.15,2013-01-09 20:58:00,
2013-01-09 15:03:00,49.9,31.5,30.40,NW,306,12.0,14.0,49,0.00,,,0.00,Wunderground v.1.15,2013-01-09 21:03:00,
2013-01-09 15:09:00,49.4,32.5,30.40,WNW,294,13.0,14.0,52,0.00,,,0.00,Wunderground v.1.15,2013-01-09 21:09:00,
2013-01-09 15:14:00,49.1,33.6,30.40,NW,309,11.0,13.0,55,0.00,,,0.00,Wunderground v.1.15,2013-01-09 21:14:00,
2013-01-09 15:20:00,48.8,34.2,30.41,WNW,302,11.0,11.0,57,0.00,,,0.00,Wunderground v.1.15,2013-01-09 21:20:00,
2013-01-09 15:26:00,48.7,33.7,30.41,WNW,296,11.0,13.0,56,0.00,,,0.00,Wunderground v.1.15,2013-01-09 21:26:00,
2013-01-09 15:31:00,48.3,34.2,30.42,NW,315,10.0,10.0,58,0.00,,,0.00,Wunderground v.1.15,2013-01-09 21:31:00,
2013-01-09 15:37:00,47.9,32.9,30.42,NW,305,10.0,12.0,56,0.00,,,0.00,Wunderground v.1.15,2013-01-09 21:37:00,
2013-01-09 15:43:00,47.7,32.8,30.43,WNW,300,10.0,10.0,56,0.00,,,0.00,Wunderground v.1.15,2013-01-09 21:43:00,
2013-01-09 15:49:00,47.3,33.3,30.43,WNW,302,10.0,10.0,58,0.00,,,0.00,Wunderground v.1.15,2013-01-09 21:49:00,
2013-01-09 15:55:00,46.7,33.1,30.43,WNW,295,8.0,17.0,59,0.00,,,0.00,Wunderground v.1.15,2013-01-09 21:55:00,
2013-01-09 16:00:00,46.3,32.3,30.43,NW,310,8.0,11.0,58,0.00,,,0.00,Wunderground v.1.15,2013-01-09 22:00:00,
2013-01-09 16:06:00,45.9,31.9,30.43,WNW,301,10.0,15.0,58,0.00,,,0.00,Wunderground v.1.15,2013-01-09 22:06:00,
2013-01-09 16:12:00,45.3,32.2,30.44,NW,304,10.0,10.0,60,0.00,,,0.00,Wunderground v.1.15,2013-01-09 22:12:00,
2013-01-09 16:18:00,44.3,32.1,30.44,WNW,301,8.0,10.0,62,0.00,,,0.00,Wunderground v.1.15,2013-01-09 22:18:00,
2013-01-09 16:23:00,43.4,32.0,30.45,NW,304,7.0,8.0,64,0.00,,,0.00,Wunderground v.1.15,2013-01-09 22:23:00,
2013-01-09 16:29:00,42.7,31.4,30.45,NW,304,6.0,8.0,64,0.00,,,0.00,Wunderground v.1.15,2013-01-09 22:29:00,
2013-01-09 16:35:00,42.7,31.0,30.46,NW,308,7.0,10.0,63,0.00,,,0.00,Wunderground v.1.15,2013-01-09 22:35:00,
2013-01-09 16:41:00,42.3,30.6,30.45,NW,305,8.0,8.0,63,0.00,,,0.00,Wunderground v.1.15,2013-01-09 22:41:00,
2013-01-09 16:46:00,41.5,30.6,30.46,NW,310,7.0,8.0,65,0.00,,,0.00,Wunderground v.1.15,2013-01-09 22:46:00,
2013-01-09 16:52:00,40.6,30.5,30.46,NW,309,5.0,14.0,67,0.00,,,0.00,Wunderground v.1.15,2013-01-09 22:52:00,
2013-01-09 16:58:00,40.2,30.8,30.46,NW,310,3.0,14.0,69,0.00,,,0.00,Wunderground v.1.15,2013-01-09 22:58:00,
2013-01-09 17:04:00,40.0,30.3,30.47,NW,308,2.0,2.0,68,0.00,,,0.00,Wunderground v.1.15,2013-01-09 23:04:00,
2013-01-09 17:10:00,39.8,30.1,30.47,West,276,2.0,2.0,68,0.00,,,0.00,Wunderground v.1.15,2013-01-09 23:10:00,
2013-01-09 17:16:00,39.4,30.4,30.47,West,275,2.0,2.0,70,0.00,,,0.00,Wunderground v.1.15,2013-01-09 23:16:00,
2013-01-09 17:21:00,38.7,30.1,30.47,West,276,1.0,2.0,71,0.00,,,0.00,Wunderground v.1.15,2013-01-09 23:21:00,
2013-01-09 17:27:00,37.9,29.7,30.48,WNW,282,1.0,2.0,72,0.00,,,0.00,Wunderground v.1.15,2013-01-09 23:27:00,
2013-01-09 17:33:00,37.6,29.7,30.47,NW,318,1.0,2.0,73,0.00,,,0.00,Wunderground v.1.15,2013-01-09 23:33:00,
2013-01-09 17:39:00,37.8,28.9,30.48,NNW,336,1.0,2.0,70,0.00,,,0.00,Wunderground v.1.15,2013-01-09 23:39:00,
2013-01-09 17:45:00,38.6,28.6,30.47,NW,317,3.0,6.0,67,0.00,,,0.00,Wunderground v.1.15,2013-01-09 23:45:00,
2013-01-09 17:51:00,39.1,28.7,30.47,NW,319,6.0,6.0,66,0.00,,,0.00,Wunderground v.1.15,2013-01-09 23:51:00,
2013-01-09 17:56:00,38.9,28.9,30.48,NW,306,6.0,9.0,67,0.00,,,0.00,Wunderground v.1.15,2013-01-09 23:56:00,
2013-01-09 18:02:00,38.3,28.7,30.47,NW,312,5.0,5.0,68,0.00,,,0.00,Wunderground v.1.15,2013-01-10 00:02:00,
2013-01-09 18:08:00,37.8,28.5,30.48,NW,310,3.0,5.0,69,0.00,,,0.00,Wunderground v.1.15,2013-01-10 00:08:00,
2013-01-09 18:14:00,37.6,28.3,30.48,NW,310,1.0,2.0,69,0.00,,,0.00,Wunderground v.1.15,2013-01-10 00:14:00,
2013-01-09 18:20:00,37.5,28.2,30.48,NW,323,1.0,2.0,69,0.00,,,0.00,Wunderground v.1.15,2013-01-10 00:20:00,
2013-01-09 18:26:00,37.1,27.9,30.48,NW,317,2.0,2.0,69,0.00,,,0.00,Wunderground v.1.15,2013-01-10 00:26:00,
2013-01-09 18:31:00,36.8,27.6,30.49,NW,315,2.0,2.0,69,0.00,,,0.00,Wunderground v.1.15,2013-01-10 00:31:00,
2013-01-09 18:37:00,36.7,27.8,30.49,NW,314,1.0,2.0,70,0.00,,,0.00,Wunderground v.1.15,2013-01-10 00:37:00,
2013-01-09 18:43:00,36.9,27.7,30.49,NW,315,1.0,1.0,69,0.00,,,0.00,Wunderground v.1.15,2013-01-10 00:43:00,
2013-01-09 18:49:00,37.0,28.1,30.50,NW,315,0.0,1.0,70,0.00,,,0.00,Wunderground v.1.15,2013-01-10 00:49:00,
2013-01-09 18:55:00,36.8,27.9,30.50,WNW,290,0.0,8.0,70,0.00,,,0.00,Wunderground v.1.15,2013-01-10 00:55:00,
2013-01-09 19:00:00,36.1,27.9,30.50,SSW,196,2.0,4.0,72,0.00,,,0.00,Wunderground v.1.15,2013-01-10 01:00:00,
2013-01-09 19:06:00,35.1,28.6,30.51,South,190,4.0,4.0,77,0.00,,,0.00,Wunderground v.1.15,2013-01-10 01:06:00,
2013-01-09 19:12:00,34.4,28.6,30.50,SSW,200,4.0,4.0,79,0.00,,,0.00,Wunderground v.1.15,2013-01-10 01:12:00,
2013-01-09 19:18:00,34.2,28.4,30.51,SSW,200,3.0,4.0,79,0.00,,,0.00,Wunderground v.1.15,2013-01-10 01:18:00,
2013-01-09 19:24:00,34.1,28.6,30.51,SSW,210,2.0,3.0,80,0.00,,,0.00,Wunderground v.1.15,2013-01-10 01:24:00,
2013-01-09 19:30:00,34.0,29.1,30.51,SW,223,2.0,4.0,82,0.00,,,0.00,Wunderground v.1.15,2013-01-10 01:30:00,
2013-01-09 19:35:00,34.0,29.1,30.51,SW,217,3.0,5.0,82,0.00,,,0.00,Wunderground v.1.15,2013-01-10 01:35:00,
2013-01-09 19:41:00,34.0,28.8,30.51,SW,217,2.0,3.0,81,0.00,,,0.00,Wunderground v.1.15,2013-01-10 01:41:00,
2013-01-09 19:47:00,34.1,28.9,30.51,SW,219,1.0,3.0,81,0.00,,,0.00,Wunderground v.1.15,2013-01-10 01:47:00,
2013-01-09 19:53:00,33.9,28.7,30.50,SW,224,1.0,1.0,81,0.00,,,0.00,Wunderground v.1.15,2013-01-10 01:53:00,
2013-01-09 19:58:00,33.5,28.6,30.51,SW,222,1.0,3.0,82,0.00,,,0.00,Wunderground v.1.15,2013-01-10 01:58:00,
2013-01-09 20:04:00,33.2,28.6,30.51,SSW,203,2.0,3.0,83,0.00,,,0.00,Wunderground v.1.15,2013-01-10 02:04:00,
2013-01-09 20:10:00,33.4,28.8,30.51,SW,227,2.0,2.0,83,0.00,,,0.00,Wunderground v.1.15,2013-01-10 02:10:00,
2013-01-09 20:16:00,33.3,28.7,30.51,SW,236,1.0,2.0,83,0.00,,,0.00,Wunderground v.1.15,2013-01-10 02:16:00,
2013-01-09 20:22:00,33.0,28.4,30.51,SW,229,1.0,2.0,83,0.00,,,0.00,Wunderground v.1.15,2013-01-10 02:22:00,
2013-01-09 20:28:00,32.7,28.4,30.51,SW,215,2.0,3.0,84,0.00,,,0.00,Wunderground v.1.15,2013-01-10 02:28:00,
2013-01-09 20:34:00,32.9,28.6,30.51,SSW,208,3.0,3.0,84,0.00,,,0.00,Wunderground v.1.15,2013-01-10 02:34:00,
2013-01-09 20:40:00,33.2,28.6,30.51,SSW,205,3.0,3.0,83,0.00,,,0.00,Wunderground v.1.15,2013-01-10 02:40:00,
2013-01-09 20:45:00,33.3,28.7,30.52,SSW,200,3.0,3.0,83,0.00,,,0.00,Wunderground v.1.15,2013-01-10 02:45:00,
2013-01-09 20:51:00,33.3,28.7,30.51,SSW,202,2.0,3.0,83,0.00,,,0.00,Wunderground v.1.15,2013-01-10 02:51:00,
2013-01-09 20:57:00,32.9,28.3,30.51,SW,214,2.0,3.0,83,0.00,,,0.00,Wunderground v.1.15,2013-01-10 02:57:00,
2013-01-09 21:03:00,32.6,28.3,30.52,SSW,213,2.0,2.0,84,0.00,,,0.00,Wunderground v.1.15,2013-01-10 03:03:00,
2013-01-09 21:09:00,32.7,28.4,30.52,SW,214,2.0,2.0,84,0.00,,,0.00,Wunderground v.1.15,2013-01-10 03:09:00,
2013-01-09 21:15:00,32.7,28.4,30.52,SW,222,2.0,3.0,84,0.00,,,0.00,Wunderground v.1.15,2013-01-10 03:15:00,
2013-01-09 21:21:00,32.6,28.3,30.52,SSW,203,2.0,2.0,84,0.00,,,0.00,Wunderground v.1.15,2013-01-10 03:21:00,
2013-01-09 21:26:00,32.8,28.5,30.51,SSW,203,2.0,3.0,84,0.00,,,0.00,Wunderground v.1.15,2013-01-10 03:26:00,
2013-01-09 21:32:00,32.7,28.4,30.51,SSW,203,1.0,2.0,84,0.00,,,0.00,Wunderground v.1.15,2013-01-10 03:32:00,
2013-01-09 21:38:00,32.7,28.4,30.51,SSW,203,1.0,3.0,84,0.00,,,0.00,Wunderground v.1.15,2013-01-10 03:38:00,
2013-01-09 21:44:00,32.9,28.3,30.51,SSW,200,2.0,3.0,83,0.00,,,0.00,Wunderground v.1.15,2013-01-10 03:44:00,